createdAt,value
2018-11-20T00:01:53.436Z,73.60
2018-11-20T00:04:40.645Z,73.50
2018-11-20T00:07:34.055Z,73.50
2018-11-20T00:10:33.242Z,73.60
2018-11-20T00:13:20.478Z,73.70
2018-11-20T00:16:11.055Z,73.70
2018-11-20T00:18:56.771Z,73.70
2018-11-20T00:21:37.040Z,73.70
2018-11-20T00:24:27.268Z,73.80
2018-11-20T00:27:17.698Z,73.90
2018-11-20T00:30:03.865Z,74.00
2018-11-20T00:32:54.031Z,73.90
2018-11-20T00:35:39.695Z,73.80
2018-11-20T00:38:45.690Z,74.00
2018-11-20T00:41:22.252Z,74.10
2018-11-20T00:44:15.522Z,74.10
2018-11-20T00:47:04.486Z,74.10
2018-11-20T00:50:09.730Z,74.10
2018-11-20T00:53:06.249Z,74.10
2018-11-20T00:56:11.620Z,74.10
2018-11-20T00:59:08.378Z,74.30
2018-11-20T01:01:59.414Z,74.60
2018-11-20T01:04:46.663Z,74.30
2018-11-20T01:07:32.359Z,74.40
2018-11-20T01:10:16.736Z,74.40
2018-11-20T01:13:02.859Z,74.30
2018-11-20T01:15:59.268Z,74.30
2018-11-20T01:18:44.905Z,74.40
2018-11-20T01:21:30.536Z,74.50
2018-11-20T01:27:26.517Z,74.60
2018-11-20T01:30:12.284Z,74.60
2018-11-20T01:32:50.532Z,74.60
2018-11-20T01:35:36.555Z,74.60
2018-11-20T01:38:39.105Z,74.60
2018-11-20T01:41:33.080Z,74.80
2018-11-20T01:44:18.958Z,74.70
2018-11-20T01:47:09.078Z,74.80
2018-11-20T01:49:54.361Z,74.80
2018-11-20T01:52:41.651Z,75.00
2018-11-20T01:55:28.713Z,74.90
2018-11-20T01:58:14.855Z,74.80
2018-11-20T02:01:05.380Z,74.80
2018-11-20T02:03:45.919Z,74.80
2018-11-20T02:06:31.957Z,74.80
2018-11-20T02:09:19.707Z,74.80
2018-11-20T02:12:07.344Z,75.10
2018-11-20T02:14:54.594Z,75.00
2018-11-20T02:17:52.553Z,75.00
2018-11-20T02:20:42.644Z,75.10
2018-11-20T02:23:22.016Z,75.00
2018-11-20T02:26:09.253Z,75.10
2018-11-20T02:28:58.566Z,75.10
2018-11-20T02:31:44.341Z,75.10
2018-11-20T02:34:43.542Z,75.10
2018-11-20T02:37:33.526Z,75.20
2018-11-20T02:40:23.729Z,75.30
2018-11-20T02:43:01.856Z,75.30
2018-11-20T02:45:48.405Z,75.30
2018-11-20T02:48:34.118Z,75.30
2018-11-20T02:51:19.886Z,75.40
2018-11-20T02:54:06.130Z,75.40
2018-11-20T02:56:53.953Z,75.50
2018-11-20T02:59:46.562Z,75.60
2018-11-20T03:02:32.669Z,75.60
2018-11-20T03:05:18.577Z,75.70
2018-11-20T03:08:08.128Z,75.70
2018-11-20T03:10:53.865Z,75.80
2018-11-20T03:13:32.752Z,75.80
2018-11-20T03:16:15.326Z,76.00
2018-11-20T03:19:01.829Z,75.80
2018-11-20T03:21:37.844Z,75.80
2018-11-20T03:24:21.960Z,75.80
2018-11-20T03:27:05.351Z,75.70
2018-11-20T03:30:32.033Z,75.80
2018-11-20T03:33:17.843Z,75.80
2018-11-20T03:36:03.840Z,75.80
2018-11-20T03:38:49.883Z,76.00
2018-11-20T03:41:42.083Z,76.00
2018-11-20T03:44:35.137Z,76.00
2018-11-20T03:47:23.141Z,76.10
2018-11-20T03:50:13.631Z,76.30
2018-11-20T03:53:06.789Z,76.20
2018-11-20T03:55:53.405Z,76.10
2018-11-20T03:58:49.707Z,76.10
2018-11-20T04:01:35.411Z,76.20
2018-11-20T04:04:17.077Z,76.20
2018-11-20T04:06:56.354Z,76.10
2018-11-20T04:09:40.007Z,76.10
2018-11-20T04:12:19.441Z,76.20
2018-11-20T04:14:59.771Z,76.10
2018-11-20T04:17:53.270Z,76.20
2018-11-20T04:20:41.999Z,76.00
2018-11-20T04:23:34.969Z,76.00
2018-11-20T04:26:21.272Z,76.10
2018-11-20T04:29:11.870Z,76.00
2018-11-20T04:31:59.604Z,76.10
2018-11-20T04:34:49.494Z,76.10
2018-11-20T04:37:37.835Z,76.10
2018-11-20T04:40:20.695Z,76.10
2018-11-20T04:43:06.741Z,76.00
2018-11-20T04:45:47.828Z,76.10
2018-11-20T04:48:35.053Z,76.20
2018-11-20T04:51:09.745Z,76.10
2018-11-20T04:53:56.993Z,76.10
2018-11-20T04:56:43.196Z,76.00
2018-11-20T04:59:36.777Z,76.20
2018-11-20T05:02:23.287Z,76.20
2018-11-20T05:05:09.526Z,76.20
2018-11-20T05:08:00.122Z,76.20
2018-11-20T05:10:42.739Z,76.10
2018-11-20T05:13:28.771Z,76.10
2018-11-20T05:16:14.917Z,75.80
2018-11-20T05:19:02.654Z,75.70
2018-11-20T05:21:49.859Z,75.70
2018-11-20T05:24:30.772Z,75.70
2018-11-20T05:27:20.800Z,75.50
2018-11-20T05:30:03.183Z,75.40
2018-11-20T05:32:49.432Z,75.30
2018-11-20T05:35:36.693Z,75.10
2018-11-20T05:38:14.957Z,75.10
2018-11-20T05:41:08.142Z,75.20
2018-11-20T05:44:13.570Z,75.10
2018-11-20T05:46:52.737Z,75.20
2018-11-20T05:49:49.124Z,75.20
2018-11-20T05:52:54.650Z,75.20
2018-11-20T05:55:56.900Z,75.10
2018-11-20T05:58:46.922Z,75.20
2018-11-20T06:01:33.172Z,75.10
2018-11-20T06:04:19.288Z,75.20
2018-11-20T06:07:15.114Z,75.10
2018-11-20T06:10:02.586Z,75.10
2018-11-20T06:12:42.776Z,75.20
2018-11-20T06:15:32.503Z,75.20
2018-11-20T06:18:19.184Z,75.10
2018-11-20T06:21:23.208Z,75.10
2018-11-20T06:24:14.519Z,75.10
2018-11-20T06:27:00.571Z,75.20
2018-11-20T06:29:54.200Z,75.20
2018-11-20T06:32:44.169Z,75.10
2018-11-20T06:35:28.304Z,75.10
2018-11-20T06:38:12.093Z,75.20
2018-11-20T06:40:58.613Z,75.20
2018-11-20T06:43:37.998Z,75.00
2018-11-20T06:46:31.904Z,74.80
2018-11-20T06:49:19.131Z,74.80
2018-11-20T06:52:03.880Z,74.80
2018-11-20T06:55:09.739Z,74.80
2018-11-20T06:57:55.758Z,74.70
2018-11-20T07:00:41.697Z,74.50
2018-11-20T07:05:57.776Z,74.50
2018-11-20T07:08:56.994Z,74.00
2018-11-20T07:11:43.033Z,73.70
2018-11-20T07:14:44.076Z,73.50
2018-11-20T07:17:29.962Z,73.50
2018-11-20T07:20:20.411Z,73.50
2018-11-20T07:23:10.695Z,73.50
2018-11-20T07:25:54.363Z,73.20
2018-11-20T07:28:48.038Z,73.20
2018-11-20T07:31:35.810Z,73.20
2018-11-20T07:34:23.150Z,73.90
2018-11-20T07:37:19.357Z,73.20
2018-11-20T07:40:05.113Z,73.10
2018-11-20T07:43:07.479Z,73.10
2018-11-20T07:46:03.481Z,73.30
2018-11-20T07:48:41.407Z,73.20
2018-11-20T07:51:27.311Z,73.30
2018-11-20T07:54:08.169Z,73.30
2018-11-20T07:57:00.941Z,73.40
2018-11-20T07:59:48.236Z,73.30
2018-11-20T08:02:34.029Z,73.30
2018-11-20T08:05:19.982Z,73.30
2018-11-20T08:08:05.819Z,73.40
2018-11-20T08:10:46.064Z,73.30
2018-11-20T08:13:22.219Z,73.30
2018-11-20T08:15:59.728Z,73.30
2018-11-20T08:18:47.641Z,73.70
2018-11-20T08:21:33.516Z,73.10
2018-11-20T08:24:29.539Z,73.10
2018-11-20T08:27:31.883Z,73.00
2018-11-20T08:30:11.459Z,73.10
2018-11-20T08:32:54.257Z,73.10
2018-11-20T08:35:50.146Z,73.00
2018-11-20T08:38:35.848Z,73.00
2018-11-20T08:41:19.192Z,73.00
2018-11-20T08:44:05.189Z,73.00
2018-11-20T08:46:55.341Z,73.10
2018-11-20T08:49:41.364Z,73.20
2018-11-20T08:52:22.483Z,73.10
2018-11-20T08:55:15.806Z,73.00
2018-11-20T08:58:01.633Z,73.10
2018-11-20T09:00:44.586Z,73.00
2018-11-20T09:04:24.253Z,73.10
2018-11-20T09:07:09.954Z,73.10
2018-11-20T09:09:59.817Z,73.00
2018-11-20T09:13:01.940Z,73.00
2018-11-20T09:15:47.360Z,73.40
2018-11-20T09:18:32.977Z,73.10
2018-11-20T09:21:22.638Z,73.10
2018-11-20T09:24:09.355Z,73.90
2018-11-20T09:26:53.308Z,73.10
2018-11-20T09:29:42.679Z,73.00
2018-11-20T09:32:27.926Z,73.20
2018-11-20T09:35:13.373Z,73.10
2018-11-20T09:38:18.473Z,73.10
2018-11-20T09:41:06.330Z,73.10
2018-11-20T09:43:56.139Z,73.10
2018-11-20T09:46:50.915Z,72.80
2018-11-20T09:49:34.604Z,72.90
2018-11-20T09:52:19.626Z,73.00
2018-11-20T09:55:07.169Z,72.90
2018-11-20T09:58:08.807Z,72.80
2018-11-20T10:00:54.443Z,72.70
2018-11-20T10:03:50.504Z,72.80
2018-11-20T10:06:42.120Z,72.80
2018-11-20T10:09:27.455Z,72.70
2018-11-20T10:12:29.177Z,72.70
2018-11-20T10:15:10.350Z,72.70
2018-11-20T10:17:56.027Z,72.70
2018-11-20T10:23:37.766Z,72.70
2018-11-20T10:26:20.603Z,72.70
2018-11-20T10:29:05.583Z,72.80
2018-11-20T10:31:51.832Z,72.80
2018-11-20T10:34:38.727Z,72.90
2018-11-20T10:37:19.607Z,72.90
2018-11-20T10:40:18.501Z,72.80
2018-11-20T10:43:08.168Z,72.80
2018-11-20T10:45:47.238Z,72.80
2018-11-20T10:48:32.683Z,72.90
2018-11-20T10:51:18.305Z,72.80
2018-11-20T10:54:23.400Z,72.80
2018-11-20T10:57:12.902Z,72.70
2018-11-20T10:59:58.483Z,72.80
2018-11-20T11:03:03.580Z,72.90
2018-11-20T11:05:49.887Z,73.00
2018-11-20T11:08:35.209Z,73.20
2018-11-20T11:11:21.913Z,73.10
2018-11-20T11:14:07.594Z,73.10
2018-11-20T11:16:48.266Z,73.10
2018-11-20T11:19:40.895Z,73.90
2018-11-20T11:22:30.681Z,73.30
2018-11-20T11:25:17.228Z,73.20
2018-11-20T11:28:13.000Z,73.10
2018-11-20T11:30:59.834Z,73.30
2018-11-20T11:33:45.870Z,73.20
2018-11-20T11:36:42.449Z,73.20
2018-11-20T11:39:27.326Z,73.30
2018-11-20T11:42:23.256Z,73.40
2018-11-20T11:45:17.760Z,73.70
2018-11-20T11:48:07.717Z,73.80
2018-11-20T11:50:53.268Z,73.90
2018-11-20T11:53:33.235Z,74.00
2018-11-20T11:56:29.186Z,74.10
2018-11-20T11:59:15.337Z,74.10
2018-11-20T12:04:47.013Z,74.10
2018-11-20T12:07:36.528Z,74.10
2018-11-20T12:10:14.865Z,74.20
2018-11-20T12:13:00.090Z,74.30
2018-11-20T12:15:41.336Z,74.30
2018-11-20T12:18:36.972Z,74.40
2018-11-20T12:21:28.008Z,74.40
2018-11-20T12:24:23.692Z,74.40
2018-11-20T12:27:02.637Z,74.40
2018-11-20T12:29:55.518Z,74.40
2018-11-20T12:32:43.641Z,74.40
2018-11-20T12:35:48.377Z,74.50
2018-11-20T12:38:35.162Z,74.50
2018-11-20T12:41:31.109Z,74.50
2018-11-20T12:44:09.536Z,74.60
2018-11-20T12:46:50.948Z,74.60
2018-11-20T12:49:32.162Z,74.60
2018-11-20T12:52:17.267Z,74.70
2018-11-20T12:55:12.754Z,74.60
2018-11-20T12:57:49.176Z,74.60
2018-11-20T13:00:39.467Z,74.70
2018-11-20T13:03:37.898Z,74.70
2018-11-20T13:06:29.481Z,74.70
2018-11-20T13:09:15.701Z,74.80
2018-11-20T13:11:57.609Z,74.80
2018-11-20T13:14:34.094Z,74.80
2018-11-20T13:17:39.833Z,74.90
2018-11-20T13:20:29.616Z,74.90
2018-11-20T13:23:17.736Z,74.70
2018-11-20T13:25:57.799Z,74.80
2018-11-20T13:28:43.043Z,74.90
2018-11-20T13:31:20.743Z,74.90
2018-11-20T13:34:07.531Z,75.00
2018-11-20T13:37:03.289Z,75.00
2018-11-20T13:39:59.173Z,75.00
2018-11-20T13:42:53.672Z,75.10
2018-11-20T13:45:29.999Z,75.10
2018-11-20T13:48:16.773Z,75.20
2018-11-20T13:51:12.634Z,75.20
2018-11-20T13:53:58.182Z,75.20
2018-11-20T13:56:54.460Z,75.20
2018-11-20T13:59:39.850Z,75.30
2018-11-20T14:02:36.633Z,75.40
2018-11-20T14:05:21.867Z,75.40
2018-11-20T14:08:09.349Z,75.50
2018-11-20T14:11:02.278Z,75.50
2018-11-20T14:13:39.171Z,75.50
2018-11-20T14:16:24.632Z,75.60
2018-11-20T14:19:18.489Z,75.60
2018-11-20T14:22:02.697Z,75.60
2018-11-20T14:24:46.948Z,75.60
2018-11-20T14:27:32.120Z,75.60
2018-11-20T14:30:33.837Z,75.60
2018-11-20T14:33:19.771Z,75.70
2018-11-20T14:36:05.109Z,75.70
2018-11-20T14:38:59.408Z,75.70
2018-11-20T14:41:45.100Z,75.70
2018-11-20T14:44:29.701Z,75.80
2018-11-20T14:47:10.687Z,75.80
2018-11-20T14:50:00.305Z,75.80
2018-11-20T14:52:45.447Z,75.80
2018-11-20T14:55:44.205Z,75.80
2018-11-20T14:58:17.208Z,75.80
2018-11-20T15:01:02.717Z,75.80
2018-11-20T15:04:02.030Z,75.80
2018-11-20T15:06:37.605Z,75.80
2018-11-20T15:09:39.055Z,75.80
2018-11-20T15:12:35.286Z,75.80
2018-11-20T15:15:15.371Z,75.80
2018-11-20T15:18:00.647Z,75.80
2018-11-20T15:20:46.352Z,75.90
2018-11-20T15:23:36.063Z,75.90
2018-11-20T15:26:22.849Z,75.90
2018-11-20T15:29:12.400Z,75.90
2018-11-20T15:31:59.223Z,76.00
2018-11-20T15:34:45.054Z,75.90
2018-11-20T15:37:30.289Z,75.90
2018-11-20T15:40:35.231Z,75.90
2018-11-20T15:43:22.135Z,75.90
2018-11-20T15:46:20.881Z,76.00
2018-11-20T15:49:06.750Z,76.00
2018-11-20T15:52:11.720Z,75.90
2018-11-20T15:55:10.461Z,76.00
2018-11-20T15:58:03.267Z,75.90
2018-11-20T16:00:54.884Z,76.00
2018-11-20T16:03:39.303Z,76.00
2018-11-20T16:06:40.694Z,76.00
2018-11-20T16:09:45.334Z,75.90
2018-11-20T16:12:41.435Z,76.00
2018-11-20T16:15:37.280Z,75.90
2018-11-20T16:18:11.904Z,76.00
2018-11-20T16:20:58.034Z,76.00
2018-11-20T16:23:51.370Z,76.00
2018-11-20T16:26:36.943Z,76.00
2018-11-20T16:29:28.454Z,76.10
2018-11-20T16:32:14.050Z,76.00
2018-11-20T16:35:16.137Z,76.00
2018-11-20T16:38:02.963Z,76.00
2018-11-20T16:41:05.086Z,75.70
2018-11-20T16:43:54.453Z,75.70
2018-11-20T16:46:45.570Z,75.50
2018-11-20T16:49:44.317Z,75.40
2018-11-20T16:52:34.217Z,75.40
2018-11-20T16:55:26.270Z,75.30
2018-11-20T16:58:10.130Z,75.10
2018-11-20T17:00:57.407Z,75.10
2018-11-20T17:03:42.652Z,75.00
2018-11-20T17:06:28.365Z,75.00
2018-11-20T17:09:25.432Z,75.00
2018-11-20T17:12:12.229Z,75.00
2018-11-20T17:14:57.553Z,75.00
2018-11-20T17:17:35.010Z,75.00
2018-11-20T17:20:20.607Z,74.90
2018-11-20T17:23:01.488Z,74.80
2018-11-20T17:25:39.777Z,75.00
2018-11-20T17:28:26.614Z,74.80
2018-11-20T17:31:28.816Z,74.50
2018-11-20T17:34:21.669Z,74.40
2018-11-20T17:37:07.343Z,74.40
2018-11-20T17:40:09.037Z,74.50
2018-11-20T17:42:58.983Z,74.40
2018-11-20T17:45:37.980Z,74.50
2018-11-20T17:48:24.815Z,74.40
2018-11-20T17:51:10.072Z,74.40
2018-11-20T17:53:55.737Z,74.30
2018-11-20T17:56:41.161Z,74.20
2018-11-20T17:59:36.732Z,74.20
2018-11-20T18:02:23.727Z,74.20
2018-11-20T18:05:10.767Z,74.10
2018-11-20T18:08:06.328Z,74.10
2018-11-20T18:11:00.967Z,74.00
2018-11-20T18:13:53.748Z,74.00
2018-11-20T18:16:39.227Z,74.00
2018-11-20T18:19:16.590Z,74.10
2018-11-20T18:22:01.941Z,74.00
2018-11-20T18:24:48.894Z,74.00
2018-11-20T18:27:36.037Z,74.00
2018-11-20T18:30:24.483Z,73.90
2018-11-20T18:33:05.987Z,73.90
2018-11-20T18:35:44.315Z,73.90
2018-11-20T18:38:33.943Z,74.00
2018-11-20T18:41:18.933Z,73.90
2018-11-20T18:44:13.133Z,74.00
2018-11-20T18:46:58.556Z,74.10
2018-11-20T18:49:48.289Z,74.10
2018-11-20T18:52:31.236Z,74.10
2018-11-20T18:55:16.537Z,74.20
2018-11-20T18:58:02.129Z,74.20
2018-11-20T19:00:48.239Z,74.10
2018-11-20T19:03:44.756Z,74.10
2018-11-20T19:06:23.251Z,74.20
2018-11-20T19:09:12.821Z,74.20
2018-11-20T19:12:03.571Z,74.20
2018-11-20T19:14:45.473Z,74.30
2018-11-20T19:17:43.785Z,74.10
2018-11-20T19:20:36.551Z,74.10
2018-11-20T19:23:29.460Z,74.80
2018-11-20T19:26:13.381Z,74.10
2018-11-20T19:29:15.060Z,74.10
2018-11-20T19:32:03.223Z,74.10
2018-11-20T19:35:06.171Z,74.20
2018-11-20T19:37:59.143Z,74.40
2018-11-20T19:40:55.019Z,75.00
2018-11-20T19:43:41.156Z,74.70
2018-11-20T19:46:19.552Z,74.60
2018-11-20T19:49:07.078Z,74.50
2018-11-20T19:52:00.546Z,74.40
2018-11-20T19:54:51.229Z,74.20
2018-11-20T19:57:50.230Z,74.10
2018-11-20T20:00:49.373Z,74.30
2018-11-20T20:03:51.157Z,74.50
2018-11-20T20:06:36.862Z,74.50
2018-11-20T20:09:36.054Z,74.60
2018-11-20T20:12:18.145Z,74.80
2018-11-20T20:15:04.334Z,75.00
2018-11-20T20:17:53.854Z,75.80
2018-11-20T20:20:43.781Z,75.10
2018-11-20T20:23:33.854Z,75.20
2018-11-20T20:26:37.010Z,75.20
2018-11-20T20:29:22.951Z,75.40
2018-11-20T20:32:22.509Z,75.30
2018-11-20T20:35:05.029Z,75.30
2018-11-20T20:37:58.256Z,75.50
2018-11-20T20:40:41.545Z,75.50
2018-11-20T20:43:23.254Z,75.50
2018-11-20T20:46:09.076Z,75.60
2018-11-20T20:48:53.959Z,75.60
2018-11-20T20:51:44.468Z,75.70
2018-11-20T20:54:30.267Z,75.80
2018-11-20T20:57:17.134Z,75.80
2018-11-20T21:00:10.301Z,75.90
2018-11-20T21:03:12.233Z,76.00
2018-11-20T21:06:01.908Z,76.00
2018-11-20T21:08:48.836Z,76.00
2018-11-20T21:11:41.826Z,76.00
2018-11-20T21:14:31.843Z,76.10
2018-11-20T21:17:17.795Z,76.20
2018-11-20T21:20:03.521Z,76.30
2018-11-20T21:22:52.285Z,76.30
2018-11-20T21:25:37.815Z,76.30
2018-11-20T21:28:38.980Z,76.40
2018-11-20T21:31:24.281Z,76.30
2018-11-20T21:34:17.103Z,76.40
2018-11-20T21:37:12.221Z,76.40
2018-11-20T21:39:57.672Z,76.40
2018-11-20T21:42:43.658Z,76.20
2018-11-20T21:45:33.312Z,76.20
2018-11-20T21:48:23.385Z,76.20
2018-11-20T21:51:08.167Z,76.30
2018-11-20T21:53:45.036Z,76.20
2018-11-20T21:56:36.906Z,76.30
2018-11-20T21:59:23.407Z,76.30
2018-11-20T22:02:11.527Z,76.30
2018-11-20T22:04:59.803Z,76.30
2018-11-20T22:07:45.241Z,76.30
2018-11-20T22:10:35.487Z,76.30
2018-11-20T22:13:21.063Z,76.30
2018-11-20T22:16:06.408Z,76.50
2018-11-20T22:19:05.511Z,76.40
2018-11-20T22:21:52.580Z,76.50
2018-11-20T22:24:42.182Z,76.40
2018-11-20T22:27:31.767Z,76.30
2018-11-20T22:30:25.255Z,76.50
2018-11-20T22:33:18.061Z,76.60
2018-11-20T22:36:16.896Z,76.70
2018-11-20T22:38:55.413Z,77.40
2018-11-20T22:41:46.185Z,76.60
2018-11-20T22:44:31.553Z,76.70
2018-11-20T22:47:18.451Z,76.80
2018-11-20T22:49:54.496Z,76.80
2018-11-20T22:52:56.202Z,76.80
2018-11-20T22:55:41.783Z,76.80
2018-11-20T22:58:22.442Z,76.80
2018-11-20T23:01:24.313Z,76.80
2018-11-20T23:04:29.565Z,76.90
2018-11-20T23:07:31.780Z,77.00
2018-11-20T23:09:59.501Z,77.00
2018-11-20T23:12:27.124Z,77.10
2018-11-20T23:14:54.723Z,77.00
2018-11-20T23:17:23.313Z,77.00
2018-11-20T23:19:50.854Z,77.00
2018-11-20T23:22:18.755Z,77.00
2018-11-20T23:24:46.358Z,77.00
2018-11-20T23:27:16.594Z,77.00
2018-11-20T23:29:41.561Z,77.00
2018-11-20T23:32:09.114Z,77.10
2018-11-20T23:34:36.652Z,77.00
2018-11-20T23:37:04.252Z,77.00
2018-11-20T23:39:31.848Z,77.20
2018-11-20T23:41:59.374Z,77.20
2018-11-20T23:44:26.948Z,77.20
2018-11-20T23:46:54.487Z,77.20
2018-11-20T23:49:22.026Z,77.30
2018-11-20T23:51:49.595Z,77.30
2018-11-20T23:54:17.412Z,77.30
2018-11-20T23:56:44.986Z,77.30
2018-11-20T23:59:12.986Z,77.40
